createdAt,value
2023-04-15T00:00:36.137Z,52.5425
2023-04-15T00:01:37.671Z,51.8179
2023-04-15T00:02:39.156Z,54.0767
2023-04-15T00:03:40.869Z,58.6449
2023-04-15T00:04:41.982Z,57.8838
2023-04-15T00:05:43.406Z,57.4588
2023-04-15T00:06:44.809Z,56.3736
2023-04-15T00:07:47.215Z,55.3038
2023-04-15T00:08:47.688Z,55.1541
2023-04-15T00:09:54.195Z,55.0134
2023-04-15T00:10:50.606Z,55.0255
2023-04-15T00:11:52.031Z,55.0601
2023-04-15T00:12:53.437Z,54.6864
2023-04-15T00:13:54.962Z,53.9846
2023-04-15T00:14:56.359Z,53.5416
2023-04-15T00:15:57.831Z,53.6662
2023-04-15T00:16:59.250Z,53.5557
2023-04-15T00:18:00.730Z,53.5835
2023-04-15T00:19:02.363Z,53.6363
2023-04-15T00:20:03.606Z,53.2001
2023-04-15T00:21:05.044Z,52.7928
2023-04-15T00:22:06.406Z,52.4342
2023-04-15T00:23:07.834Z,52.3769
2023-04-15T00:24:09.425Z,52.2714
2023-04-15T00:25:10.798Z,52.4718
2023-04-15T00:26:12.287Z,52.4788
2023-04-15T00:27:13.655Z,52.0783
2023-04-15T00:28:15.173Z,51.8533
2023-04-15T00:29:16.577Z,52.8289
2023-04-15T00:30:18.058Z,57.7898
2023-04-15T00:31:19.442Z,57.0818
2023-04-15T00:32:20.882Z,56.3191
2023-04-15T00:33:22.306Z,55.6138
2023-04-15T00:34:24.235Z,55.0559
2023-04-15T00:35:25.219Z,54.6743
2023-04-15T00:36:26.696Z,54.7587
2023-04-15T00:37:28.099Z,54.7059
2023-04-15T00:38:29.518Z,54.5837
2023-04-15T00:39:31.202Z,54.5974
2023-04-15T00:40:32.478Z,54.0655
2023-04-15T00:41:34.599Z,53.4961
2023-04-15T00:42:35.370Z,53.2733
2023-04-15T00:43:36.687Z,53.3253
2023-04-15T00:44:38.271Z,53.2069
2023-04-15T00:45:39.670Z,53.1710
2023-04-15T00:46:41.658Z,53.3430
2023-04-15T00:47:42.507Z,52.9104
2023-04-15T00:48:44.690Z,52.4526
2023-04-15T00:49:45.516Z,51.8309
2023-04-15T00:50:47.255Z,54.2833
2023-04-15T00:51:48.338Z,58.3010
2023-04-15T00:52:49.753Z,57.6763
2023-04-15T00:53:51.166Z,57.1648
2023-04-15T00:54:52.671Z,56.1813
2023-04-15T00:55:54.655Z,55.3417
2023-04-15T00:56:55.676Z,55.2028
2023-04-15T00:57:57.040Z,55.0869
2023-04-15T00:58:58.668Z,55.2152
2023-04-15T00:59:59.929Z,55.1831
2023-04-15T01:01:01.424Z,55.0687
2023-04-15T01:02:02.904Z,54.4196
2023-04-15T01:03:04.351Z,53.6246
2023-04-15T01:04:06.706Z,53.5555
2023-04-15T01:05:07.138Z,53.5296
2023-04-15T01:06:08.748Z,53.4445
2023-04-15T01:07:10.305Z,53.5886
2023-04-15T01:08:11.411Z,53.2562
2023-04-15T01:09:12.918Z,52.7271
2023-04-15T01:10:14.274Z,52.3173
2023-04-15T01:11:16.214Z,52.2813
2023-04-15T01:12:17.222Z,52.3018
2023-04-15T01:13:18.685Z,52.2605
2023-04-15T01:14:22.661Z,52.3975
2023-04-15T01:15:21.541Z,52.1632
2023-04-15T01:16:23.054Z,51.7622
2023-04-15T01:17:24.506Z,54.9012
2023-04-15T01:18:25.854Z,57.9512
2023-04-15T01:19:27.296Z,57.4400
2023-04-15T01:20:28.720Z,56.8552
2023-04-15T01:21:30.291Z,55.9848
2023-04-15T01:22:32.129Z,55.0290
2023-04-15T01:23:33.040Z,54.6802
2023-04-15T01:24:34.404Z,54.6774
2023-04-15T01:25:35.933Z,54.7836
2023-04-15T01:26:37.401Z,54.7468
2023-04-15T01:27:38.857Z,54.7365
2023-04-15T01:28:40.242Z,54.1173
2023-04-15T01:29:41.726Z,53.4057
2023-04-15T01:30:43.091Z,53.2070
2023-04-15T01:31:44.659Z,53.1960
2023-04-15T01:32:46.090Z,53.0842
2023-04-15T01:33:47.433Z,53.2928
2023-04-15T01:34:51.690Z,53.1945
2023-04-15T01:35:51.215Z,52.7751
2023-04-15T01:36:51.756Z,52.2875
2023-04-15T01:37:53.257Z,52.0114
2023-04-15T01:38:54.692Z,51.9787
2023-04-15T01:39:56.082Z,51.9632
2023-04-15T01:40:57.647Z,57.8202
2023-04-15T01:41:58.964Z,58.7433
2023-04-15T01:43:00.469Z,57.7547
2023-04-15T01:44:01.831Z,56.0194
2023-04-15T01:45:03.286Z,55.0114
2023-04-15T01:46:04.721Z,55.1809
2023-04-15T01:47:06.169Z,55.0114
2023-04-15T01:48:07.648Z,54.9951
2023-04-15T01:49:09.181Z,54.9851
2023-04-15T01:50:10.472Z,54.8422
2023-04-15T01:51:11.924Z,54.2380
2023-04-15T01:52:13.327Z,53.7226
2023-04-15T01:53:14.886Z,53.7298
2023-04-15T01:54:16.237Z,53.7052
2023-04-15T01:55:17.781Z,53.5975
2023-04-15T01:56:19.140Z,53.6431
2023-04-15T01:57:20.559Z,53.3529
2023-04-15T01:58:22.214Z,52.9357
2023-04-15T01:59:23.658Z,52.3852
2023-04-15T02:00:25.610Z,52.3810
2023-04-15T02:01:26.484Z,52.4785
2023-04-15T02:02:28.678Z,52.3996
2023-04-15T02:03:29.367Z,52.1688
2023-04-15T02:04:31.153Z,52.1555
2023-04-15T02:05:32.122Z,52.2358
2023-04-15T02:06:33.615Z,52.0334
2023-04-15T02:07:35.052Z,51.7326
2023-04-15T02:08:36.602Z,55.2668
2023-04-15T02:09:37.934Z,57.7643
2023-04-15T02:10:39.666Z,57.1932
2023-04-15T02:11:40.765Z,56.4752
2023-04-15T02:12:42.206Z,55.2717
2023-04-15T02:13:43.725Z,54.7390
2023-04-15T02:14:45.100Z,54.7068
2023-04-15T02:15:46.537Z,54.8334
2023-04-15T02:16:48.011Z,54.5720
2023-04-15T02:17:50.200Z,54.6772
2023-04-15T02:18:50.868Z,54.3733
2023-04-15T02:19:52.716Z,53.8091
2023-04-15T02:20:53.731Z,53.1809
2023-04-15T02:21:55.164Z,53.3395
2023-04-15T02:22:56.562Z,53.4044
2023-04-15T02:23:58.141Z,53.2839
2023-04-15T02:24:59.687Z,53.3996
2023-04-15T02:26:00.924Z,53.1140
2023-04-15T02:27:02.334Z,52.6696
2023-04-15T02:28:03.802Z,52.2435
2023-04-15T02:29:05.293Z,51.8491
2023-04-15T02:30:06.777Z,55.2938
2023-04-15T02:31:08.218Z,58.3037
2023-04-15T02:32:09.633Z,57.5925
2023-04-15T02:33:11.023Z,56.9431
2023-04-15T02:34:12.427Z,56.0502
2023-04-15T02:35:13.978Z,55.4044
2023-04-15T02:36:15.686Z,55.4664
2023-04-15T02:37:18.715Z,55.4648
2023-04-15T02:38:18.187Z,55.3956
2023-04-15T02:39:20.611Z,55.3734
2023-04-15T02:40:21.221Z,55.2058
2023-04-15T02:41:22.527Z,54.4709
2023-04-15T02:42:24.164Z,53.9569
2023-04-15T02:43:25.380Z,53.9336
2023-04-15T02:44:26.844Z,53.8404
2023-04-15T02:45:28.281Z,53.8711
2023-04-15T02:46:29.855Z,53.8261
2023-04-15T02:47:31.221Z,53.7974
2023-04-15T02:48:32.632Z,53.3532
2023-04-15T02:49:34.043Z,52.8121
2023-04-15T02:50:36.151Z,52.4637
2023-04-15T02:51:37.016Z,52.6737
2023-04-15T02:52:38.453Z,52.5856
2023-04-15T02:53:39.883Z,52.6190
2023-04-15T02:54:41.288Z,52.5408
2023-04-15T02:55:42.699Z,51.7381
2023-04-15T02:56:44.158Z,50.4414
2023-04-15T02:57:45.568Z,49.1322
2023-04-15T02:58:47.105Z,47.6738
2023-04-15T02:59:48.466Z,46.3485
2023-04-15T03:00:49.940Z,45.6260
2023-04-15T03:01:51.564Z,45.4341
2023-04-15T03:02:53.329Z,45.5179
2023-04-15T03:03:54.219Z,45.3906
2023-04-15T03:04:55.652Z,45.3891
2023-04-15T03:05:57.088Z,45.5842
2023-04-15T03:06:58.731Z,45.4928
2023-04-15T03:08:00.059Z,45.5673
2023-04-15T03:09:01.692Z,45.2102
2023-04-15T03:10:02.817Z,45.0911
2023-04-15T03:11:04.321Z,45.0621
2023-04-15T03:12:06.138Z,45.1968
2023-04-15T03:13:07.247Z,45.2435
2023-04-15T03:14:08.632Z,45.0076
2023-04-15T03:15:10.048Z,44.7569
2023-04-15T03:16:12.139Z,44.6375
2023-04-15T03:17:13.047Z,44.5684
2023-04-15T03:18:14.468Z,44.7209
2023-04-15T03:19:16.185Z,44.7710
2023-04-15T03:20:17.284Z,44.5680
2023-04-15T03:21:18.835Z,44.3286
2023-04-15T03:22:20.254Z,44.1474
2023-04-15T03:23:21.735Z,44.1533
2023-04-15T03:24:23.139Z,44.1800
2023-04-15T03:25:25.232Z,44.4467
2023-04-15T03:26:25.969Z,44.2479
2023-04-15T03:27:27.489Z,43.8908
2023-04-15T03:28:28.912Z,43.8260
2023-04-15T03:29:30.386Z,43.9392
2023-04-15T03:30:31.796Z,44.0345
2023-04-15T03:31:33.314Z,44.2969
2023-04-15T03:32:34.682Z,44.1933
2023-04-15T03:33:36.265Z,43.7913
2023-04-15T03:34:37.741Z,43.5111
2023-04-15T03:35:39.012Z,43.4143
2023-04-15T03:36:40.407Z,43.5401
2023-04-15T03:37:44.725Z,43.8928
2023-04-15T03:38:43.285Z,44.1417
2023-04-15T03:39:44.767Z,43.8696
2023-04-15T03:40:46.131Z,43.4087
2023-04-15T03:41:47.593Z,43.2074
2023-04-15T03:42:49.050Z,48.1556
2023-04-15T03:43:50.775Z,48.7626
2023-04-15T03:44:51.912Z,48.8466
2023-04-15T03:45:53.380Z,48.3430
2023-04-15T03:46:54.825Z,47.3041
2023-04-15T03:47:56.555Z,46.9057
2023-04-15T03:48:57.739Z,47.1687
2023-04-15T03:49:59.151Z,47.3458
2023-04-15T03:51:00.598Z,47.4674
2023-04-15T03:52:01.965Z,47.3482
2023-04-15T03:53:03.493Z,46.6688
2023-04-15T03:54:04.912Z,45.9385
2023-04-15T03:55:06.393Z,46.0273
2023-04-15T03:56:07.743Z,46.1167
2023-04-15T03:57:09.227Z,46.3230
2023-04-15T03:58:10.607Z,46.5428
2023-04-15T03:59:12.125Z,46.3241
2023-04-15T04:00:13.562Z,45.5065
2023-04-15T04:01:14.987Z,45.0206
2023-04-15T04:02:16.465Z,45.2549
2023-04-15T04:03:18.017Z,45.4121
2023-04-15T04:04:19.357Z,45.7215
2023-04-15T04:05:20.780Z,46.0116
2023-04-15T04:06:22.150Z,45.9021
2023-04-15T04:07:23.633Z,45.0721
2023-04-15T04:08:25.011Z,44.6087
2023-04-15T04:09:26.546Z,44.4925
2023-04-15T04:10:27.960Z,44.5440
2023-04-15T04:11:29.370Z,44.7271
2023-04-15T04:12:30.809Z,44.9185
2023-04-15T04:13:32.251Z,44.5986
2023-04-15T04:14:33.719Z,44.2354
2023-04-15T04:15:35.219Z,44.0871
2023-04-15T04:16:36.637Z,44.0722
2023-04-15T04:17:38.068Z,44.0852
2023-04-15T04:18:39.406Z,44.2987
2023-04-15T04:19:40.916Z,44.3719
2023-04-15T04:20:42.805Z,44.2090
2023-04-15T04:21:43.796Z,43.9310
2023-04-15T04:22:45.233Z,43.8533
2023-04-15T04:23:46.666Z,43.8673
2023-04-15T04:24:48.105Z,44.0250
2023-04-15T04:25:49.576Z,44.0799
2023-04-15T04:26:50.893Z,44.0936
2023-04-15T04:27:52.421Z,43.8028
2023-04-15T04:28:53.741Z,43.6723
2023-04-15T04:29:55.248Z,43.6143
2023-04-15T04:30:56.714Z,43.7211
2023-04-15T04:31:58.148Z,43.9959
2023-04-15T04:32:59.594Z,44.1515
2023-04-15T04:34:00.979Z,44.3224
2023-04-15T04:35:02.403Z,44.3737
2023-04-15T04:36:03.877Z,44.1738
2023-04-15T04:37:05.229Z,43.8109
2023-04-15T04:38:06.761Z,43.6658
2023-04-15T04:39:08.078Z,43.9302
2023-04-15T04:40:09.636Z,44.1905
2023-04-15T04:41:11.081Z,44.3658
2023-04-15T04:42:12.472Z,44.2136
2023-04-15T04:43:13.893Z,44.0417
2023-04-15T04:44:15.316Z,44.0086
2023-04-15T04:45:16.781Z,44.0582
2023-04-15T04:46:18.349Z,44.1956
2023-04-15T04:47:19.648Z,44.2623
2023-04-15T04:48:21.070Z,44.2081
2023-04-15T04:49:22.464Z,44.1313
2023-04-15T04:50:24.025Z,44.1173
2023-04-15T04:51:25.478Z,44.1590
2023-04-15T04:52:26.777Z,44.2332
2023-04-15T04:53:28.303Z,44.1891
2023-04-15T04:54:29.685Z,44.0202
2023-04-15T04:55:31.361Z,43.6630
2023-04-15T04:56:32.609Z,43.1256
2023-04-15T04:57:34.028Z,42.6287
2023-04-15T04:58:35.559Z,42.1819
2023-04-15T04:59:37.084Z,41.7370
2023-04-15T05:00:38.532Z,41.1899
2023-04-15T05:01:39.983Z,41.4489
2023-04-15T05:02:41.435Z,45.7848
2023-04-15T05:03:42.946Z,45.6842
2023-04-15T05:04:44.255Z,45.2243
2023-04-15T05:05:45.651Z,44.6500
2023-04-15T05:06:47.111Z,43.8573
2023-04-15T05:07:48.580Z,43.7164
2023-04-15T05:08:49.857Z,43.9350
2023-04-15T05:09:51.393Z,43.3945
2023-04-15T05:10:52.777Z,42.4249
2023-04-15T05:11:54.347Z,42.1909
2023-04-15T05:12:55.630Z,42.1519
2023-04-15T05:13:57.107Z,42.3495
2023-04-15T05:14:58.476Z,42.6848
2023-04-15T05:16:00.118Z,41.7963
2023-04-15T05:17:01.756Z,40.8935
2023-04-15T05:18:02.929Z,40.9311
2023-04-15T05:19:04.296Z,41.1467
2023-04-15T05:20:06.268Z,41.7071
2023-04-15T05:21:07.201Z,41.5907
2023-04-15T05:22:08.580Z,41.4562
2023-04-15T05:23:10.051Z,40.4515
2023-04-15T05:24:11.484Z,40.2448
2023-04-15T05:25:12.930Z,40.8886
2023-04-15T05:26:14.347Z,41.0768
2023-04-15T05:27:16.333Z,40.8616
2023-04-15T05:28:17.200Z,40.1107
2023-04-15T05:29:18.660Z,39.7704
2023-04-15T05:30:20.043Z,39.9967
2023-04-15T05:31:21.646Z,40.0969
2023-04-15T05:32:23.324Z,40.9075
2023-04-15T05:33:24.408Z,40.6116
2023-04-15T05:34:25.785Z,39.5191
2023-04-15T05:35:27.280Z,39.3750
2023-04-15T05:36:28.757Z,39.8151
2023-04-15T05:37:30.216Z,40.1122
2023-04-15T05:38:31.564Z,40.8692
2023-04-15T05:39:33.029Z,40.2613
2023-04-15T05:40:34.429Z,39.5186
2023-04-15T05:41:35.987Z,39.0178
2023-04-15T05:42:37.360Z,39.3398
2023-04-15T05:43:38.778Z,39.8697
2023-04-15T05:44:40.209Z,40.4696
2023-04-15T05:45:41.687Z,39.5630
2023-04-15T05:46:43.111Z,38.8395
2023-04-15T05:47:44.696Z,38.6209
2023-04-15T05:48:45.920Z,39.4755
2023-04-15T05:49:47.434Z,40.0056
2023-04-15T05:50:48.822Z,39.9404
2023-04-15T05:51:50.301Z,39.1843
2023-04-15T05:52:51.688Z,38.4212
2023-04-15T05:53:53.161Z,38.9339
2023-04-15T05:54:54.952Z,39.3499
2023-04-15T05:55:56.002Z,40.3477
2023-04-15T05:56:57.545Z,39.0571
2023-04-15T05:57:58.887Z,38.5381
2023-04-15T05:59:00.592Z,38.4298
2023-04-15T06:00:01.805Z,38.9661
2023-04-15T06:01:03.299Z,39.9248
2023-04-15T06:02:04.825Z,39.3859
2023-04-15T06:03:06.198Z,38.9441
2023-04-15T06:04:07.615Z,38.3202
2023-04-15T06:05:09.017Z,38.7027
2023-04-15T06:06:10.362Z,39.7994
2023-04-15T06:07:11.933Z,39.0759
2023-04-15T06:08:13.296Z,38.0249
2023-04-15T06:09:15.334Z,38.1343
2023-04-15T06:10:16.129Z,37.9943
2023-04-15T06:11:17.627Z,38.1315
2023-04-15T06:12:18.990Z,39.4372
2023-04-15T06:13:20.496Z,38.7529
2023-04-15T06:14:21.871Z,38.3681
2023-04-15T06:15:23.355Z,38.0076
2023-04-15T06:16:24.775Z,38.4821
2023-04-15T06:17:26.209Z,39.3527
2023-04-15T06:18:27.668Z,39.0376
2023-04-15T06:19:29.091Z,38.2203
2023-04-15T06:20:30.436Z,37.9797
2023-04-15T06:21:31.939Z,37.3636
2023-04-15T06:22:33.361Z,37.9831
2023-04-15T06:23:35.310Z,38.8550
2023-04-15T06:24:36.220Z,38.1324
2023-04-15T06:25:37.672Z,37.3275
2023-04-15T06:26:39.068Z,37.3859
2023-04-15T06:27:40.588Z,37.1776
2023-04-15T06:28:42.029Z,38.3502
2023-04-15T06:29:43.495Z,38.5195
2023-04-15T06:30:45.342Z,38.4279
2023-04-15T06:31:46.390Z,37.3297
2023-04-15T06:32:47.837Z,37.2037
2023-04-15T06:33:49.148Z,37.8479
2023-04-15T06:34:50.617Z,38.5051
2023-04-15T06:35:52.111Z,37.7100
2023-04-15T06:36:53.486Z,37.1774
2023-04-15T06:37:54.894Z,36.7999
2023-04-15T06:38:56.346Z,37.1054
2023-04-15T06:39:57.817Z,38.0962
2023-04-15T06:40:59.235Z,37.6003
2023-04-15T06:42:00.711Z,37.5865
2023-04-15T06:43:02.087Z,36.8486
2023-04-15T06:44:03.581Z,36.9315
2023-04-15T06:45:05.831Z,37.4304
2023-04-15T06:46:06.524Z,37.8398
2023-04-15T06:47:07.957Z,37.6164
2023-04-15T06:48:09.264Z,37.3877
2023-04-15T06:49:10.795Z,36.9075
2023-04-15T06:50:12.176Z,36.6664
2023-04-15T06:51:13.686Z,38.4361
2023-04-15T06:52:15.093Z,37.8064
2023-04-15T06:53:16.575Z,37.3082
2023-04-15T06:54:17.942Z,36.6440
2023-04-15T06:55:19.360Z,36.5784
2023-04-15T06:56:20.828Z,37.7687
2023-04-15T06:57:22.333Z,37.5181
2023-04-15T06:58:23.834Z,37.0649
2023-04-15T06:59:25.237Z,36.9082
2023-04-15T07:00:26.604Z,36.6243
2023-04-15T07:01:28.049Z,37.7455
2023-04-15T07:02:29.648Z,37.4614
2023-04-15T07:03:32.623Z,37.1997
2023-04-15T07:04:32.384Z,36.8268
2023-04-15T07:05:33.812Z,36.5992
2023-04-15T07:06:35.153Z,37.1746
2023-04-15T07:07:36.673Z,37.8541
2023-04-15T07:08:38.094Z,36.3013
2023-04-15T07:09:39.538Z,37.1823
2023-04-15T07:10:40.907Z,36.4194
2023-04-15T07:11:42.451Z,36.6283
2023-04-15T07:12:44.308Z,37.2816
2023-04-15T07:13:45.345Z,37.3146
2023-04-15T07:14:46.681Z,37.4100
2023-04-15T07:15:48.137Z,37.2640
2023-04-15T07:16:49.573Z,36.6025
2023-04-15T07:17:51.030Z,37.1659
2023-04-15T07:18:52.524Z,37.4444
2023-04-15T07:19:53.956Z,37.1756
2023-04-15T07:20:55.343Z,36.7861
2023-04-15T07:21:56.795Z,36.4226
2023-04-15T07:22:58.175Z,36.6262
2023-04-15T07:23:59.708Z,37.8739
2023-04-15T07:25:01.289Z,37.0625
2023-04-15T07:26:02.538Z,36.8690
2023-04-15T07:27:03.944Z,37.1648
2023-04-15T07:28:05.415Z,37.9292
2023-04-15T07:29:06.849Z,39.3140
2023-04-15T07:30:08.336Z,39.4018
2023-04-15T07:31:09.748Z,39.0830
2023-04-15T07:32:11.146Z,39.9697
2023-04-15T07:33:12.562Z,39.8547
2023-04-15T07:34:14.085Z,40.3799
2023-04-15T07:35:15.477Z,41.4086
2023-04-15T07:36:16.938Z,40.6405
2023-04-15T07:37:18.312Z,40.9018
2023-04-15T07:38:19.843Z,41.5543
2023-04-15T07:39:21.296Z,41.7687
2023-04-15T07:40:22.798Z,41.5059
2023-04-15T07:41:24.083Z,41.4578
2023-04-15T07:42:25.485Z,40.7284
2023-04-15T07:43:26.891Z,40.9620
2023-04-15T07:44:28.368Z,42.4574
2023-04-15T07:45:30.289Z,41.9635
2023-04-15T07:46:31.254Z,42.3400
2023-04-15T07:47:32.695Z,41.6909
2023-04-15T07:48:35.501Z,41.3754
2023-04-15T07:49:35.523Z,42.2400
2023-04-15T07:50:37.025Z,43.5155
2023-04-15T07:51:38.413Z,42.5777
2023-04-15T07:52:39.922Z,45.2178
2023-04-15T07:53:41.329Z,42.2797
2023-04-15T07:54:42.945Z,42.4815
2023-04-15T07:55:44.197Z,42.8303
2023-04-15T07:56:45.697Z,43.1946
2023-04-15T07:57:47.007Z,44.3010
2023-04-15T07:58:48.551Z,44.9581
2023-04-15T07:59:50.326Z,42.5686
2023-04-15T08:00:51.395Z,42.0090
2023-04-15T08:01:52.849Z,43.6483
2023-04-15T08:02:54.488Z,43.4488
2023-04-15T08:03:55.924Z,44.2733
2023-04-15T08:04:57.385Z,43.8549
2023-04-15T08:05:58.640Z,42.0939
2023-04-15T08:07:00.030Z,42.9639
2023-04-15T08:08:01.488Z,44.3627
2023-04-15T08:09:03.130Z,43.7408
2023-04-15T08:10:04.412Z,46.4548
2023-04-15T08:11:05.809Z,43.3837
2023-04-15T08:12:07.223Z,42.9063
2023-04-15T08:13:08.636Z,43.0557
2023-04-15T08:14:10.139Z,44.9130
2023-04-15T08:15:11.507Z,44.0689
2023-04-15T08:16:13.067Z,45.6334
2023-04-15T08:17:14.760Z,43.2289
2023-04-15T08:18:15.978Z,42.6461
2023-04-15T08:19:17.410Z,43.3195
2023-04-15T08:20:18.813Z,44.3999
2023-04-15T08:21:20.293Z,44.1101
2023-04-15T08:22:22.418Z,46.7244
2023-04-15T08:23:23.162Z,42.9567
2023-04-15T08:24:24.595Z,42.8784
2023-04-15T08:25:26.067Z,43.7410
2023-04-15T08:26:27.523Z,44.4149
2023-04-15T08:27:29.000Z,43.9393
2023-04-15T08:28:30.354Z,47.5681
2023-04-15T08:29:31.767Z,43.3908
2023-04-15T08:30:33.215Z,43.0024
2023-04-15T08:31:34.833Z,43.9734
2023-04-15T08:32:36.173Z,44.5817
2023-04-15T08:33:37.549Z,44.0572
2023-04-15T08:34:38.948Z,47.6491
2023-04-15T08:35:40.467Z,43.4635
2023-04-15T08:36:41.896Z,43.1005
2023-04-15T08:37:43.372Z,43.9248
2023-04-15T08:38:44.736Z,43.8620
2023-04-15T08:39:46.183Z,44.4972
2023-04-15T08:40:47.684Z,46.9671
2023-04-15T08:41:49.121Z,43.0963
2023-04-15T08:42:50.898Z,43.0663
2023-04-15T08:43:51.932Z,44.1850
2023-04-15T08:44:53.443Z,44.4203
2023-04-15T08:45:54.822Z,44.6513
2023-04-15T08:46:56.331Z,44.4599
2023-04-15T08:47:57.803Z,42.6861
2023-04-15T08:48:59.263Z,42.8851
2023-04-15T08:50:00.597Z,44.0191
2023-04-15T08:51:02.112Z,43.7670
2023-04-15T08:52:03.516Z,47.1364
2023-04-15T08:53:05.002Z,44.6326
2023-04-15T08:54:06.352Z,42.7489
2023-04-15T08:55:07.806Z,42.9721
2023-04-15T08:56:09.261Z,44.8005
2023-04-15T08:57:10.731Z,44.0938
2023-04-15T08:58:12.186Z,46.4223
2023-04-15T08:59:13.537Z,43.6742
2023-04-15T09:00:15.104Z,42.8394
2023-04-15T09:01:16.572Z,42.5674
2023-04-15T09:02:18.199Z,43.8891
2023-04-15T09:03:19.513Z,43.7696
2023-04-15T09:04:20.927Z,46.5766
2023-04-15T09:05:22.301Z,43.3019
2023-04-15T09:06:23.782Z,42.3835
2023-04-15T09:07:25.360Z,42.9151
2023-04-15T09:08:26.763Z,43.4242
2023-04-15T09:09:28.042Z,43.7683
2023-04-15T09:10:29.555Z,44.9047
2023-04-15T09:11:30.995Z,42.2636
2023-04-15T09:12:32.475Z,42.1300
2023-04-15T09:13:33.907Z,43.0172
2023-04-15T09:14:35.355Z,43.8489
2023-04-15T09:15:36.689Z,43.8785
2023-04-15T09:16:38.206Z,44.4979
2023-04-15T09:17:39.662Z,41.9945
2023-04-15T09:18:41.134Z,41.4738
2023-04-15T09:19:42.463Z,42.4765
2023-04-15T09:20:43.945Z,44.1326
2023-04-15T09:21:45.349Z,44.0579
2023-04-15T09:22:46.932Z,42.9535
2023-04-15T09:23:48.241Z,41.3456
2023-04-15T09:24:49.680Z,40.9452
2023-04-15T09:25:51.081Z,41.4749
2023-04-15T09:26:52.554Z,43.3248
2023-04-15T09:27:54.006Z,44.1231
2023-04-15T09:28:55.565Z,43.8121
2023-04-15T09:29:56.929Z,41.8512
2023-04-15T09:30:58.335Z,41.6746
2023-04-15T09:31:59.721Z,43.8035
2023-04-15T09:33:01.278Z,43.9148
2023-04-15T09:34:02.879Z,45.4863
2023-04-15T09:35:06.889Z,43.6909
2023-04-15T09:36:05.485Z,42.0534
2023-04-15T09:37:07.813Z,41.5667
2023-04-15T09:38:08.453Z,44.2405
2023-04-15T09:39:09.941Z,44.7619
2023-04-15T09:40:11.839Z,45.5056
2023-04-15T09:41:12.778Z,42.7510
2023-04-15T09:42:14.149Z,42.2617
2023-04-15T09:43:15.663Z,42.0736
2023-04-15T09:44:17.021Z,44.0572
2023-04-15T09:45:18.486Z,44.0438
2023-04-15T09:46:19.923Z,45.9372
2023-04-15T09:47:21.423Z,42.4829
2023-04-15T09:48:22.790Z,42.0333
2023-04-15T09:49:24.306Z,42.5588
2023-04-15T09:50:25.661Z,43.5168
2023-04-15T09:51:27.113Z,43.9002
2023-04-15T09:52:28.541Z,45.7190
2023-04-15T09:53:31.856Z,42.4801
2023-04-15T09:54:31.502Z,42.1423
2023-04-15T09:55:32.888Z,42.0017
2023-04-15T09:56:34.299Z,43.6837
2023-04-15T09:57:35.757Z,44.4391
2023-04-15T09:58:37.217Z,44.9349
2023-04-15T09:59:38.749Z,41.5193
2023-04-15T10:00:40.103Z,41.2490
2023-04-15T10:01:41.612Z,41.2161
2023-04-15T10:02:43.077Z,42.7411
2023-04-15T10:03:44.576Z,43.4854
2023-04-15T10:04:45.842Z,42.9977
2023-04-15T10:05:47.302Z,41.0693
2023-04-15T10:06:48.724Z,40.9627
2023-04-15T10:07:50.190Z,41.5041
2023-04-15T10:08:51.674Z,42.8017
2023-04-15T10:09:53.146Z,42.9533
2023-04-15T10:10:54.474Z,42.3296
2023-04-15T10:11:55.962Z,40.8903
2023-04-15T10:12:57.343Z,40.5940
2023-04-15T10:13:58.923Z,41.4194
2023-04-15T10:15:00.267Z,42.5683
2023-04-15T10:16:01.737Z,44.1586
2023-04-15T10:17:03.119Z,41.4945
2023-04-15T10:18:04.597Z,40.5505
2023-04-15T10:19:06.003Z,40.0888
2023-04-15T10:20:07.490Z,41.2939
2023-04-15T10:21:08.844Z,42.9586
2023-04-15T10:22:10.312Z,43.6433
2023-04-15T10:23:12.890Z,41.2835
2023-04-15T10:24:13.300Z,40.5251
2023-04-15T10:25:14.625Z,39.9238
2023-04-15T10:26:16.074Z,41.6901
2023-04-15T10:27:17.470Z,43.7302
2023-04-15T10:28:18.938Z,43.5953
2023-04-15T10:29:20.438Z,40.0413
2023-04-15T10:30:21.838Z,39.7688
2023-04-15T10:31:23.221Z,40.0577
2023-04-15T10:32:24.736Z,42.5735
2023-04-15T10:33:26.122Z,42.1226
2023-04-15T10:34:27.603Z,42.0822
2023-04-15T10:35:28.973Z,40.2389
2023-04-15T10:36:30.423Z,40.2934
2023-04-15T10:37:31.918Z,40.4264
2023-04-15T10:38:33.312Z,41.8549
2023-04-15T10:39:34.836Z,42.4439
2023-04-15T10:40:36.220Z,42.3773
2023-04-15T10:41:37.585Z,39.7835
2023-04-15T10:42:39.104Z,39.5848
2023-04-15T10:43:40.460Z,39.9146
2023-04-15T10:44:41.933Z,42.8515
2023-04-15T10:45:43.415Z,43.7509
2023-04-15T10:46:44.790Z,41.3661
2023-04-15T10:47:46.265Z,39.8385
2023-04-15T10:48:47.622Z,39.6899
2023-04-15T10:49:49.194Z,40.0543
2023-04-15T10:50:50.582Z,41.8964
2023-04-15T10:51:51.976Z,42.2845
2023-04-15T10:52:53.403Z,40.3909
2023-04-15T10:53:54.852Z,39.8133
2023-04-15T10:54:56.341Z,39.3246
2023-04-15T10:55:57.774Z,41.1035
2023-04-15T10:56:59.141Z,42.7902
2023-04-15T10:58:00.613Z,42.5578
2023-04-15T10:59:02.012Z,40.3663
2023-04-15T11:00:03.525Z,40.0963
2023-04-15T11:01:05.488Z,39.9006
2023-04-15T11:02:06.437Z,40.5726
2023-04-15T11:03:07.991Z,42.5957
2023-04-15T11:04:09.362Z,41.8624
2023-04-15T11:05:10.645Z,40.4069
2023-04-15T11:06:12.128Z,39.8822
2023-04-15T11:07:13.499Z,39.3572
2023-04-15T11:08:14.952Z,41.4808
2023-04-15T11:09:16.361Z,43.1274
2023-04-15T11:10:17.922Z,41.8628
2023-04-15T11:11:19.271Z,40.0663
2023-04-15T11:12:21.371Z,39.6862
2023-04-15T11:13:22.121Z,39.4371
2023-04-15T11:14:23.593Z,40.8916
2023-04-15T11:15:25.060Z,42.9169
2023-04-15T11:16:26.980Z,41.8788
2023-04-15T11:17:27.966Z,40.8788
2023-04-15T11:18:29.338Z,40.0260
2023-04-15T11:19:30.803Z,39.8402
2023-04-15T11:20:32.239Z,41.5594
2023-04-15T11:21:33.684Z,42.1749
2023-04-15T11:22:35.070Z,41.6908
2023-04-15T11:23:36.523Z,40.1537
2023-04-15T11:24:37.958Z,39.9149
2023-04-15T11:25:39.427Z,39.6832
2023-04-15T11:26:40.875Z,40.4441
2023-04-15T11:27:42.230Z,42.3975
2023-04-15T11:28:43.731Z,41.9354
2023-04-15T11:29:45.117Z,39.7356
2023-04-15T11:30:46.645Z,39.4783
2023-04-15T11:31:48.071Z,39.6215
2023-04-15T11:32:49.515Z,40.0156
2023-04-15T11:33:50.872Z,42.7555
2023-04-15T11:34:52.344Z,41.1734
2023-04-15T11:35:53.791Z,39.7490
2023-04-15T11:36:55.263Z,39.3359
2023-04-15T11:37:56.683Z,39.0211
2023-04-15T11:38:58.086Z,40.0311
2023-04-15T11:39:59.506Z,42.2767
2023-04-15T11:41:01.012Z,41.0238
2023-04-15T11:42:02.406Z,39.2612
2023-04-15T11:43:03.839Z,39.5987
2023-04-15T11:44:05.391Z,39.2803
2023-04-15T11:45:06.745Z,40.4539
2023-04-15T11:46:08.291Z,42.4602
2023-04-15T11:47:09.649Z,42.4117
2023-04-15T11:48:11.075Z,39.6332
2023-04-15T11:49:12.489Z,39.3619
2023-04-15T11:50:13.884Z,39.1893
2023-04-15T11:51:15.435Z,41.2261
2023-04-15T11:52:16.826Z,42.8036
2023-04-15T11:53:18.261Z,41.0108
2023-04-15T11:54:19.659Z,39.5827
2023-04-15T11:55:21.138Z,39.6712
2023-04-15T11:56:22.622Z,38.8254
2023-04-15T11:57:24.003Z,41.9192
2023-04-15T11:58:25.394Z,42.8503
2023-04-15T11:59:39.012Z,40.9920
2023-04-15T12:00:28.317Z,39.6449
2023-04-15T12:01:29.748Z,39.7487
2023-04-15T12:02:31.440Z,40.0331
2023-04-15T12:03:33.576Z,42.7337
2023-04-15T12:04:34.183Z,42.8360
2023-04-15T12:05:35.480Z,40.4821
2023-04-15T12:06:37.034Z,39.9338
2023-04-15T12:07:38.398Z,39.6851
2023-04-15T12:08:39.865Z,40.9641
2023-04-15T12:09:41.212Z,43.1119
2023-04-15T12:10:42.666Z,42.1813
2023-04-15T12:11:44.119Z,40.1459
2023-04-15T12:12:45.613Z,40.0322
2023-04-15T12:13:46.975Z,39.7446
2023-04-15T12:14:48.449Z,42.0790
2023-04-15T12:15:49.861Z,43.4828
2023-04-15T12:16:51.954Z,41.0988
2023-04-15T12:17:52.792Z,39.7926
2023-04-15T12:18:54.196Z,40.0055
2023-04-15T12:19:55.656Z,40.2848
2023-04-15T12:20:57.126Z,42.5618
2023-04-15T12:22:00.053Z,42.2410
2023-04-15T12:22:59.999Z,40.8450